Terminal Aerodrome Forecast
Issued by NWS

Home | Current Version | Previous Version | Text Only | Print | Product List | Glossary On
Versions: 1 2 3 4 5 6 7 8 9 10 11 12 13 14 15 16 17 18 19 20 21 22
510
FTUS45 KFGZ 240540
TAFSEZ
TAF
KSEZ 240540Z 2406/2506 19008KT 5SM -SHSN BR OVC007
     FM241800 18006KT P6SM OVC025
      TEMPO 2421/2501 3SM -SHSN OVC015=

USA.gov is the U.S. government's official web portal to all federal, state and local government web resources and services.